sensor_id;sensor_type;location;lat;lon;timestamp;pressure;altitude;pressure_sealevel;temperature;humidity
40171;BME280;37650;52.790;18.268;2023-08-06T16:45:58;98575.91;;;16.27;100.00
40171;BME280;37650;52.790;18.268;2023-08-06T16:49:19;98578.22;;;16.25;100.00
40171;BME280;37650;52.790;18.268;2023-08-06T16:52:42;98569.44;;;16.24;100.00
40171;BME280;37650;52.790;18.268;2023-08-06T16:56:04;98553.48;;;16.19;100.00
40171;BME280;37650;52.790;18.268;2023-08-06T16:59:25;98575.19;;;16.13;100.00
40171;BME280;37650;52.790;18.268;2023-08-06T17:02:48;98580.06;;;16.08;100.00
40171;BME280;37650;52.790;18.268;2023-08-06T17:06:10;98566.92;;;16.07;100.00
40171;BME280;37650;52.790;18.268;2023-08-06T17:09:35;98569.56;;;16.05;100.00
40171;BME280;37650;52.790;18.268;2023-08-06T17:12:57;98591.11;;;16.05;100.00
40171;BME280;37650;52.790;18.268;2023-08-06T17:16:18;98594.70;;;16.03;100.00
40171;BME280;37650;52.790;18.268;2023-08-06T17:19:43;98589.25;;;15.92;100.00
40171;BME280;37650;52.790;18.268;2023-08-06T17:23:05;98592.27;;;15.94;100.00
40171;BME280;37650;52.790;18.268;2023-08-06T17:26:27;98595.11;;;15.92;100.00
40171;BME280;37650;52.790;18.268;2023-08-06T17:29:48;98600.86;;;15.87;100.00
40171;BME280;37650;52.790;18.268;2023-08-06T17:33:10;98600.30;;;15.77;100.00
40171;BME280;37650;52.790;18.268;2023-08-06T17:36:33;98595.98;;;15.72;100.00
40171;BME280;37650;52.790;18.268;2023-08-06T17:39:55;98590.55;;;15.66;100.00
40171;BME280;37650;52.790;18.268;2023-08-06T17:43:18;98592.30;;;15.55;100.00
40171;BME280;37650;52.790;18.268;2023-08-06T17:46:39;98594.80;;;15.48;100.00
40171;BME280;37650;52.790;18.268;2023-08-06T17:50:01;98596.61;;;15.45;100.00
40171;BME280;37650;52.790;18.268;2023-08-06T17:53:25;98601.61;;;15.41;100.00
40171;BME280;37650;52.790;18.268;2023-08-06T17:56:47;98607.46;;;15.37;100.00
40171;BME280;37650;52.790;18.268;2023-08-06T18:00:09;98609.88;;;15.35;100.00
40171;BME280;37650;52.790;18.268;2023-08-06T18:03:33;98604.51;;;15.28;100.00
40171;BME280;37650;52.790;18.268;2023-08-06T18:06:54;98604.70;;;15.19;100.00
40171;BME280;37650;52.790;18.268;2023-08-06T18:10:16;98614.11;;;15.14;100.00
40171;BME280;37650;52.790;18.268;2023-08-06T18:13:38;98613.42;;;15.08;100.00
40171;BME280;37650;52.790;18.268;2023-08-06T18:17:00;98605.52;;;14.97;100.00
40171;BME280;37650;52.790;18.268;2023-08-06T18:20:22;98623.12;;;14.87;100.00
40171;BME280;37650;52.790;18.268;2023-08-06T18:23:43;98632.56;;;14.84;100.00
40171;BME280;37650;52.790;18.268;2023-08-06T18:27:05;98643.36;;;14.79;100.00
40171;BME280;37650;52.790;18.268;2023-08-06T18:30:27;98640.59;;;14.76;100.00
40171;BME280;37650;52.790;18.268;2023-08-06T18:33:50;98627.99;;;14.72;100.00
40171;BME280;37650;52.790;18.268;2023-08-06T18:37:11;98634.63;;;14.69;100.00
40171;BME280;37650;52.790;18.268;2023-08-06T18:40:33;98622.48;;;14.64;100.00
40171;BME280;37650;52.790;18.268;2023-08-06T18:43:55;98623.44;;;14.57;100.00
40171;BME280;37650;52.790;18.268;2023-08-06T18:47:17;98646.83;;;14.54;100.00
40171;BME280;37650;52.790;18.268;2023-08-06T18:50:39;98656.67;;;14.50;100.00
40171;BME280;37650;52.790;18.268;2023-08-06T18:54:01;98662.98;;;14.48;100.00
40171;BME280;37650;52.790;18.268;2023-08-06T18:57:22;98663.90;;;14.48;100.00
40171;BME280;37650;52.790;18.268;2023-08-06T19:00:44;98666.86;;;14.46;100.00
40171;BME280;37650;52.790;18.268;2023-08-06T19:04:06;98665.77;;;14.42;100.00
40171;BME280;37650;52.790;18.268;2023-08-06T19:07:30;98658.48;;;14.39;100.00
40171;BME280;37650;52.790;18.268;2023-08-06T19:10:54;98654.83;;;14.33;100.00
40171;BME280;37650;52.790;18.268;2023-08-06T19:14:19;98649.53;;;14.31;100.00
40171;BME280;37650;52.790;18.268;2023-08-06T19:17:41;98654.41;;;14.27;100.00
40171;BME280;37650;52.790;18.268;2023-08-06T19:21:06;98654.83;;;14.24;100.00
40171;BME280;37650;52.790;18.268;2023-08-06T19:24:28;98648.11;;;14.22;100.00
40171;BME280;37650;52.790;18.268;2023-08-06T19:27:50;98646.08;;;14.23;100.00
40171;BME280;37650;52.790;18.268;2023-08-06T19:31:12;98649.37;;;14.22;100.00
40171;BME280;37650;52.790;18.268;2023-08-06T19:34:34;98650.67;;;14.19;100.00
40171;BME280;37650;52.790;18.268;2023-08-06T19:37:57;98646.44;;;14.17;100.00
40171;BME280;37650;52.790;18.268;2023-08-06T19:41:19;98644.83;;;14.13;100.00
40171;BME280;37650;52.790;18.268;2023-08-06T19:44:43;98643.44;;;14.08;100.00
40171;BME280;37650;52.790;18.268;2023-08-06T19:48:05;98644.59;;;14.04;100.00
40171;BME280;37650;52.790;18.268;2023-08-06T19:51:27;98651.79;;;14.00;100.00
40171;BME280;37650;52.790;18.268;2023-08-06T19:54:50;98653.49;;;13.99;100.00
40171;BME280;37650;52.790;18.268;2023-08-06T19:58:12;98663.46;;;13.98;100.00
40171;BME280;37650;52.790;18.268;2023-08-06T20:01:34;98675.11;;;14.00;100.00
40171;BME280;37650;52.790;18.268;2023-08-06T20:04:56;98683.02;;;13.98;100.00
40171;BME280;37650;52.790;18.268;2023-08-06T20:08:18;98679.44;;;13.96;100.00
40171;BME280;37650;52.790;18.268;2023-08-06T20:11:41;98674.15;;;13.96;100.00
40171;BME280;37650;52.790;18.268;2023-08-06T20:15:03;98679.66;;;13.93;100.00
40171;BME280;37650;52.790;18.268;2023-08-06T20:18:25;98683.26;;;13.92;100.00
40171;BME280;37650;52.790;18.268;2023-08-06T20:21:47;98688.73;;;13.92;100.00
40171;BME280;37650;52.790;18.268;2023-08-06T20:25:08;98690.02;;;13.87;100.00
40171;BME280;37650;52.790;18.268;2023-08-06T20:28:31;98689.20;;;13.84;100.00
40171;BME280;37650;52.790;18.268;2023-08-06T20:31:53;98687.68;;;13.81;100.00
40171;BME280;37650;52.790;18.268;2023-08-06T20:35:15;98680.06;;;13.74;100.00
40171;BME280;37650;52.790;18.268;2023-08-06T20:38:36;98683.11;;;13.72;100.00
40171;BME280;37650;52.790;18.268;2023-08-06T20:41:58;98689.86;;;13.66;100.00
40171;BME280;37650;52.790;18.268;2023-08-06T20:45:20;98697.21;;;13.62;100.00
40171;BME280;37650;52.790;18.268;2023-08-06T20:48:41;98696.55;;;13.62;100.00
40171;BME280;37650;52.790;18.268;2023-08-06T20:52:03;98699.25;;;13.59;100.00
40171;BME280;37650;52.790;18.268;2023-08-06T20:55:25;98695.95;;;13.56;100.00
40171;BME280;37650;52.790;18.268;2023-08-06T20:58:47;98694.37;;;13.53;100.00
40171;BME280;37650;52.790;18.268;2023-08-06T21:02:08;98686.46;;;13.51;100.00
40171;BME280;37650;52.790;18.268;2023-08-06T21:05:30;98682.69;;;13.47;100.00
40171;BME280;37650;52.790;18.268;2023-08-06T21:08:51;98692.48;;;13.46;100.00
40171;BME280;37650;52.790;18.268;2023-08-06T21:12:12;98694.44;;;13.43;100.00
40171;BME280;37650;52.790;18.268;2023-08-06T21:15:34;98709.25;;;13.43;100.00
40171;BME280;37650;52.790;18.268;2023-08-06T21:18:55;98719.66;;;13.45;100.00
40171;BME280;37650;52.790;18.268;2023-08-06T21:22:16;98723.13;;;13.46;100.00
40171;BME280;37650;52.790;18.268;2023-08-06T21:25:37;98724.85;;;13.46;100.00
40171;BME280;37650;52.790;18.268;2023-08-06T21:28:58;98720.89;;;13.47;100.00
40171;BME280;37650;52.790;18.268;2023-08-06T21:32:19;98718.45;;;13.47;100.00
40171;BME280;37650;52.790;18.268;2023-08-06T21:35:40;98720.30;;;13.46;100.00
40171;BME280;37650;52.790;18.268;2023-08-06T21:39:02;98718.00;;;13.44;100.00
40171;BME280;37650;52.790;18.268;2023-08-06T21:42:23;98721.52;;;13.41;100.00
40171;BME280;37650;52.790;18.268;2023-08-06T21:45:44;98724.05;;;13.40;100.00
40171;BME280;37650;52.790;18.268;2023-08-06T21:49:05;98726.11;;;13.39;100.00
40171;BME280;37650;52.790;18.268;2023-08-06T21:52:26;98735.27;;;13.36;100.00
40171;BME280;37650;52.790;18.268;2023-08-06T21:55:48;98739.52;;;13.36;100.00
40171;BME280;37650;52.790;18.268;2023-08-06T21:59:09;98754.79;;;13.35;100.00
40171;BME280;37650;52.790;18.268;2023-08-06T22:02:30;98760.88;;;13.33;100.00
40171;BME280;37650;52.790;18.268;2023-08-06T22:05:52;98759.40;;;13.30;100.00
40171;BME280;37650;52.790;18.268;2023-08-06T22:09:13;98759.33;;;13.28;100.00
40171;BME280;37650;52.790;18.268;2023-08-06T22:12:34;98757.05;;;13.28;100.00
40171;BME280;37650;52.790;18.268;2023-08-06T22:15:56;98754.08;;;13.28;100.00
40171;BME280;37650;52.790;18.268;2023-08-06T22:19:17;98755.55;;;13.27;100.00
40171;BME280;37650;52.790;18.268;2023-08-06T22:22:39;98763.52;;;13.26;100.00
40171;BME280;37650;52.790;18.268;2023-08-06T22:26:00;98772.59;;;13.27;100.00
40171;BME280;37650;52.790;18.268;2023-08-06T22:29:21;98773.85;;;13.29;100.00
40171;BME280;37650;52.790;18.268;2023-08-06T22:32:43;98777.14;;;13.30;100.00
40171;BME280;37650;52.790;18.268;2023-08-06T22:36:04;98773.15;;;13.29;100.00
40171;BME280;37650;52.790;18.268;2023-08-06T22:39:25;98777.83;;;13.28;100.00
40171;BME280;37650;52.790;18.268;2023-08-06T22:42:47;98775.92;;;13.27;100.00
40171;BME280;37650;52.790;18.268;2023-08-06T22:46:08;98774.80;;;13.28;100.00
40171;BME280;37650;52.790;18.268;2023-08-06T22:49:29;98779.80;;;13.25;100.00
40171;BME280;37650;52.790;18.268;2023-08-06T22:52:50;98782.38;;;13.24;100.00
40171;BME280;37650;52.790;18.268;2023-08-06T22:56:12;98778.15;;;13.24;100.00
40171;BME280;37650;52.790;18.268;2023-08-06T22:59:33;98779.44;;;13.23;100.00
40171;BME280;37650;52.790;18.268;2023-08-06T23:02:54;98780.36;;;13.25;100.00
40171;BME280;37650;52.790;18.268;2023-08-06T23:06:16;98793.20;;;13.25;100.00
40171;BME280;37650;52.790;18.268;2023-08-06T23:09:37;98798.22;;;13.24;100.00
40171;BME280;37650;52.790;18.268;2023-08-06T23:12:58;98802.10;;;13.24;100.00
40171;BME280;37650;52.790;18.268;2023-08-06T23:16:20;98808.89;;;13.22;100.00
40171;BME280;37650;52.790;18.268;2023-08-06T23:19:41;98805.67;;;13.20;100.00
40171;BME280;37650;52.790;18.268;2023-08-06T23:23:03;98809.80;;;13.19;100.00
40171;BME280;37650;52.790;18.268;2023-08-06T23:26:24;98822.23;;;13.18;100.00
40171;BME280;37650;52.790;18.268;2023-08-06T23:29:46;98826.76;;;13.16;100.00
40171;BME280;37650;52.790;18.268;2023-08-06T23:33:07;98835.89;;;13.17;100.00
40171;BME280;37650;52.790;18.268;2023-08-06T23:36:28;98834.51;;;13.16;100.00
40171;BME280;37650;52.790;18.268;2023-08-06T23:39:49;98829.88;;;13.15;100.00
40171;BME280;37650;52.790;18.268;2023-08-06T23:43:16;98825.70;;;13.14;100.00
40171;BME280;37650;52.790;18.268;2023-08-06T23:46:37;98831.03;;;13.13;100.00
40171;BME280;37650;52.790;18.268;2023-08-06T23:49:59;98837.30;;;13.12;100.00
40171;BME280;37650;52.790;18.268;2023-08-06T23:53:20;98835.45;;;13.10;100.00
40171;BME280;37650;52.790;18.268;2023-08-06T23:56:42;98838.87;;;13.08;100.00
